Time;durP1;ratioP1;P1;durP2;ratioP2;P2;SDS_P1;SDS_P2;PMS_P1;PMS_P2;Temp;Humidity;BMP_temperature;BMP_pressure;BME280_temperature;BME280_humidity;BME280_pressure;Samples;Min_cycle;Max_cycle;Signal;HPM_P1;HPM_P2
2023/10/06 00:02:28;222987.00;0.74;385.48;0.00;0.00;0.62;;;;;17.60;1.00;;;;;;2277033;61;1414;-86
2023/10/06 00:04:55;251189.00;0.84;434.00;73588.00;0.25;127.96;;;;;17.60;1.00;;;;;;2276935;61;1490;-86
2023/10/06 00:07:24;360182.00;1.20;621.36;79359.00;0.26;137.93;;;;;17.80;1.00;;;;;;2277059;61;1024;-88
2023/10/06 00:09:53;435270.00;1.45;750.45;125387.00;0.42;217.37;;;;;17.60;1.00;;;;;;2276957;61;1088;-86
2023/10/06 00:12:20;341175.00;1.14;588.69;74134.00;0.25;128.90;;;;;17.60;1.00;;;;;;2276960;61;1611;-88
2023/10/06 00:14:48;221491.00;0.74;382.91;82761.00;0.28;143.81;;;;;17.60;1.00;;;;;;2277004;61;1156;-85
2023/10/06 00:17:19;249235.00;0.83;430.64;80783.00;0.27;140.39;;;;;17.50;1.00;;;;;;2276968;61;1083;-88
2023/10/06 00:19:47;341287.00;1.14;588.89;113624.00;0.38;197.08;;;;;17.30;1.00;;;;;;2276847;61;2008;-87
2023/10/06 00:22:17;103220.00;0.34;179.13;0.00;0.00;0.62;;;;;17.40;1.00;;;;;;2276921;61;2267;-87
2023/10/06 00:24:47;114514.00;0.38;198.62;0.00;0.00;0.62;;;;;17.20;1.00;;;;;;2276886;61;1604;-86
2023/10/06 00:27:16;37977.00;0.13;66.39;0.00;0.00;0.62;;;;;17.20;1.00;;;;;;2276992;61;975;-88
2023/10/06 00:29:47;322454.00;1.07;556.52;31067.00;0.10;54.43;;;;;17.10;1.00;;;;;;2276953;61;1039;-87
2023/10/06 00:32:26;310990.00;1.04;536.81;0.00;0.00;0.62;;;;;17.10;1.00;;;;;;2276923;61;1716;-88
2023/10/06 00:34:54;214673.00;0.72;371.18;78711.00;0.26;136.81;;;;;17.00;1.00;;;;;;2277002;61;1250;-88
2023/10/06 00:37:23;518500.00;1.73;893.68;131544.00;0.44;227.99;;;;;16.90;1.00;;;;;;2276949;61;1058;-88
2023/10/06 00:39:52;249660.00;0.83;431.37;84916.00;0.28;147.53;;;;;17.10;1.00;;;;;;2276872;61;1915;-87
2023/10/06 00:42:26;259145.00;0.86;447.68;80553.00;0.27;139.99;;;;;17.20;1.00;;;;;;2276860;61;1424;-87
2023/10/06 00:44:54;255950.00;0.85;442.18;81052.00;0.27;140.85;;;;;17.30;1.00;;;;;;2276907;61;1075;-86
2023/10/06 00:47:22;71961.00;0.24;125.15;0.00;0.00;0.62;;;;;17.40;1.00;;;;;;2276920;61;1138;-88
2023/10/06 00:49:51;187007.00;0.62;323.56;0.00;0.00;0.62;;;;;17.50;1.00;;;;;;2276820;61;1005;-87
2023/10/06 00:52:19;84856.00;0.28;147.42;0.00;0.00;0.62;;;;;17.40;1.00;;;;;;2276857;61;1389;-86
2023/10/06 00:54:46;52098.00;0.17;90.81;0.00;0.00;0.62;;;;;17.10;1.00;;;;;;2276827;61;1028;-88
2023/10/06 00:57:18;81757.00;0.27;142.07;0.00;0.00;0.62;;;;;16.60;1.00;;;;;;2276915;61;1097;-87
2023/10/06 00:59:45;9085.00;0.03;16.36;0.00;0.00;0.62;;;;;16.60;1.00;;;;;;2276819;61;1923;-87
2023/10/06 01:02:15;200965.00;0.67;347.58;21234.00;0.07;37.41;;;;;16.80;1.00;;;;;;2276821;61;1388;-86
2023/10/06 01:04:45;114884.00;0.38;199.26;34055.00;0.11;59.60;;;;;17.00;1.00;;;;;;2276785;61;1043;-86
2023/10/06 01:07:15;0.00;0.00;0.62;0.00;0.00;0.62;;;;;16.70;1.00;;;;;;2276826;61;991;-86
2023/10/06 01:09:56;88043.00;0.29;152.93;0.00;0.00;0.62;;;;;16.70;1.00;;;;;;2276821;61;2393;-87
2023/10/06 01:12:23;9224.00;0.03;16.60;0.00;0.00;0.62;;;;;16.40;1.00;;;;;;2276772;61;1444;-88
2023/10/06 01:14:52;71147.00;0.24;123.74;0.00;0.00;0.62;;;;;16.30;1.00;;;;;;2276854;61;1026;-87
2023/10/06 01:17:22;61483.00;0.20;107.04;0.00;0.00;0.62;;;;;16.30;1.00;;;;;;2276824;61;1094;-87
2023/10/06 01:19:53;125405.00;0.42;217.40;4648.00;0.02;8.68;;;;;16.40;1.00;;;;;;2276721;61;1919;-87
2023/10/06 01:22:28;36977.00;0.12;64.66;0.00;0.00;0.62;;;;;16.40;1.00;;;;;;2276834;61;1350;-88
2023/10/06 01:24:55;34447.00;0.11;60.28;0.00;0.00;0.62;;;;;16.80;1.00;;;;;;2276812;61;1134;-88
2023/10/06 01:27:26;52282.00;0.17;91.13;0.00;0.00;0.62;;;;;16.70;1.00;;;;;;2276778;61;1357;-87
2023/10/06 01:30:17;28124.00;0.09;49.34;0.00;0.00;0.62;;;;;16.70;1.00;;;;;;2276754;61;1152;-88
2023/10/06 01:32:41;0.00;0.00;0.62;0.00;0.00;0.62;;;;;17.00;1.00;;;;;;2276745;61;1158;-87
2023/10/06 01:35:12;26912.00;0.09;47.24;0.00;0.00;0.62;;;;;17.20;1.00;;;;;;2276748;61;1150;-88
2023/10/06 01:37:41;197478.00;0.66;341.58;0.00;0.00;0.62;;;;;16.90;1.00;;;;;;2276684;61;1632;-88
2023/10/06 01:40:16;76024.00;0.25;132.17;0.00;0.00;0.62;;;;;16.50;1.00;;;;;;2276620;61;2001;-86
2023/10/06 01:42:45;111667.00;0.37;193.71;0.00;0.00;0.62;;;;;16.50;1.00;;;;;;2276746;61;1138;-86
2023/10/06 01:45:15;105901.00;0.35;183.76;18649.00;0.06;32.93;;;;;16.70;1.00;;;;;;2276702;61;1283;-88
2023/10/06 01:47:41;204734.00;0.68;354.07;78294.00;0.26;136.09;;;;;16.70;1.00;;;;;;2276717;61;1285;-87
2023/10/06 01:50:09;58902.00;0.20;102.58;0.00;0.00;0.62;;;;;16.60;1.00;;;;;;2276628;61;1375;-87
2023/10/06 01:52:39;92279.00;0.31;160.24;0.00;0.00;0.62;;;;;16.20;1.00;;;;;;2276738;61;1747;-88
2023/10/06 01:55:09;51138.00;0.17;89.15;0.00;0.00;0.62;;;;;16.30;1.00;;;;;;2276713;61;1075;-87
2023/10/06 01:57:36;175160.00;0.58;303.15;727.00;0.00;1.88;;;;;16.60;1.00;;;;;;2276733;61;1291;-88
2023/10/06 02:00:14;0.00;0.00;0.62;0.00;0.00;0.62;;;;;16.50;1.00;;;;;;2276659;61;1996;-89
2023/10/06 02:02:41;258218.00;0.86;446.08;71211.00;0.24;123.85;;;;;16.60;1.00;;;;;;2276658;61;1685;-87
2023/10/06 02:05:12;131628.00;0.44;228.14;82818.00;0.28;143.90;;;;;17.00;1.00;;;;;;2276515;61;2303;-88
2023/10/06 02:07:40;121129312.00;403.76;71996816.00;0.00;0.00;0.62;;;;;17.00;1.00;;;;;;2276672;61;1722;-88
2023/10/06 02:10:12;60054.00;0.20;104.57;0.00;0.00;0.62;;;;;16.40;1.00;;;;;;2276566;61;1331;-88
2023/10/06 02:12:39;28053.00;0.09;49.21;0.00;0.00;0.62;;;;;16.10;1.00;;;;;;2276642;61;970;-86
2023/10/06 02:15:10;29962.00;0.10;52.52;0.00;0.00;0.62;;;;;15.90;1.00;;;;;;2276576;61;2283;-88
2023/10/06 02:17:37;0.00;0.00;0.62;0.00;0.00;0.62;;;;;15.90;1.00;;;;;;2276555;61;1055;-90
2023/10/06 02:20:12;97553.00;0.33;169.35;0.00;0.00;0.62;;;;;16.10;1.00;;;;;;2276509;61;2000;-88
2023/10/06 02:22:41;365461.00;1.22;630.44;87279.00;0.29;151.61;;;;;15.30;1.00;;;;;;2276493;61;1134;-86
2023/10/06 02:25:15;60555.00;0.20;105.44;0.00;0.00;0.62;;;;;14.20;1.00;;;;;;2276524;61;1529;-88
2023/10/06 02:27:47;171806.00;0.57;297.38;81752.00;0.27;142.06;;;;;14.00;1.00;;;;;;2276528;61;1049;-88
2023/10/06 02:30:33;414632.00;1.38;714.96;130514.00;0.44;226.22;;;;;14.10;1.00;;;;;;2276593;61;1384;-88
2023/10/06 02:33:03;518543.00;1.73;893.76;82586.00;0.28;143.50;;;;;14.40;1.00;;;;;;2276515;61;1545;-87
2023/10/06 02:35:31;456203.00;1.52;786.45;84550.00;0.28;146.90;;;;;15.10;1.00;;;;;;2276538;61;1429;-87
2023/10/06 02:37:58;490846.00;1.64;846.07;91440.00;0.30;158.79;;;;;14.90;1.00;;;;;;2276542;61;1649;-89
2023/10/06 02:40:36;486035.00;1.62;837.78;80712.00;0.27;140.27;;;;;14.80;1.00;;;;;;2276394;61;1912;-88
2023/10/06 02:43:09;324124.00;1.08;559.39;78464.00;0.26;136.38;;;;;15.10;1.00;;;;;;2276506;61;1596;-88
2023/10/06 02:45:43;278186.00;0.93;480.42;48966.00;0.16;85.40;;;;;15.50;1.00;;;;;;2276630;61;1048;-90
2023/10/06 02:48:22;494633.00;1.65;852.58;88389.00;0.29;153.53;;;;;15.70;1.00;;;;;;2276423;61;1600;-89
2023/10/06 02:51:14;421238.00;1.40;726.32;84483.00;0.28;146.78;;;;;16.00;1.00;;;;;;2276508;61;1473;-88
2023/10/06 02:53:49;255844.00;0.85;442.00;0.00;0.00;0.62;;;;;16.20;1.00;;;;;;2276499;61;1568;-87
2023/10/06 02:56:29;90645.00;0.30;157.42;0.00;0.00;0.62;;;;;16.20;1.00;;;;;;2276470;61;1573;-88
2023/10/06 02:59:15;117053.00;0.39;203.00;0.00;0.00;0.62;;;;;15.20;1.00;;;;;;2276423;61;1580;-87
2023/10/06 03:01:51;29900.00;0.10;52.41;0.00;0.00;0.62;;;;;14.60;1.00;;;;;;2276509;61;2001;-89
2023/10/06 03:04:20;72502.00;0.24;126.08;0.00;0.00;0.62;;;;;14.50;1.00;;;;;;2276790;61;1459;-88
2023/10/06 03:06:56;89386.00;0.30;155.25;0.00;0.00;0.62;;;;;14.50;1.00;;;;;;2276799;61;1414;-89
2023/10/06 03:09:36;34929.00;0.12;61.11;0.00;0.00;0.62;;;;;14.00;1.00;;;;;;2276809;61;1487;-87
2023/10/06 03:12:15;245228.00;0.82;423.74;89573.00;0.30;155.57;;;;;14.20;1.00;;;;;;2276806;61;1478;-87
2023/10/06 03:14:43;82147.00;0.27;142.75;0.00;0.00;0.62;;;;;14.60;1.00;;;;;;2276742;61;1622;-88
2023/10/06 03:17:12;178041.00;0.59;308.12;0.00;0.00;0.62;;;;;14.70;1.00;;;;;;2276768;61;1163;-89
2023/10/06 03:19:43;0.00;0.00;0.62;0.00;0.00;0.62;;;;;14.90;1.00;;;;;;2276740;61;2013;-88
2023/10/06 03:22:13;195150.00;0.65;337.57;0.00;0.00;0.62;;;;;15.00;1.00;;;;;;2276412;61;1469;-87
2023/10/06 03:30:08;386342.00;1.29;666.33;0.00;0.00;0.62;;;;;15.40;1.00;;;;;;2270311;61;1326;-89
2023/10/06 03:32:39;1927.00;0.01;3.96;0.00;0.00;0.62;;;;;15.40;1.00;;;;;;2264673;61;921;-88
2023/10/06 03:35:17;45466.00;0.15;79.34;0.00;0.00;0.62;;;;;15.80;1.00;;;;;;2265080;61;1710;-88
2023/10/06 03:38:08;6523.00;0.02;11.92;0.00;0.00;0.62;;;;;16.10;1.00;;;;;;2265334;61;1169;-89
2023/10/06 03:40:44;70058.00;0.23;121.86;0.00;0.00;0.62;;;;;16.20;1.00;;;;;;2265192;61;1903;-88
2023/10/06 03:43:12;270527.00;0.90;467.25;80917.00;0.27;140.62;;;;;16.40;1.00;;;;;;2265152;61;1028;-88
2023/10/06 03:45:47;0.00;0.00;0.62;0.00;0.00;0.62;;;;;16.70;1.00;;;;;;2265297;61;1546;-90
2023/10/06 03:48:15;125253088.00;417.51;79610768.00;125061016.00;416.87;79244744.00;;;;;16.80;1.00;;;;;;2265251;61;1582;-89
2023/10/06 03:50:43;296232.00;0.99;511.44;79902.00;0.27;138.87;;;;;16.70;1.00;;;;;;2265265;61;1398;-89
2023/10/06 03:53:13;404700.00;1.35;697.89;84949.00;0.28;147.59;;;;;16.70;1.00;;;;;;2265191;61;1663;-89
2023/10/06 03:55:41;165670.00;0.55;286.81;84104.00;0.28;146.13;;;;;16.60;1.00;;;;;;2265163;61;1113;-89
2023/10/06 03:58:09;329881.00;1.10;569.28;79919.00;0.27;138.90;;;;;16.60;1.00;;;;;;2265142;61;1928;-92
2023/10/06 04:00:40;179763.00;0.60;311.08;71435.00;0.24;124.24;;;;;16.70;1.00;;;;;;2265150;61;1920;-89
2023/10/06 04:03:13;238435.00;0.79;412.06;81732.00;0.27;142.03;;;;;16.60;1.00;;;;;;2265175;61;1048;-88
2023/10/06 04:05:41;248514.00;0.83;429.40;87592.00;0.29;152.15;;;;;16.70;1.00;;;;;;2265074;61;1444;-88
2023/10/06 04:08:14;198412.00;0.66;343.19;77881.00;0.26;135.38;;;;;16.70;1.00;;;;;;2265172;61;1032;-89
2023/10/06 04:10:42;280253.00;0.93;483.97;80480.00;0.27;139.87;;;;;16.70;1.00;;;;;;2265100;61;1355;-90
2023/10/06 04:13:09;241379.00;0.80;417.12;78313.00;0.26;136.12;;;;;16.50;1.00;;;;;;2265088;61;1448;-86
2023/10/06 04:15:38;270759.00;0.90;467.65;70420.00;0.23;122.49;;;;;16.60;1.00;;;;;;2265070;61;1064;-92
2023/10/06 04:18:10;295329.00;0.98;509.89;84634.00;0.28;147.04;;;;;16.40;1.00;;;;;;2265127;61;954;-87
2023/10/06 04:20:40;307579.00;1.03;530.95;81462.00;0.27;141.56;;;;;16.20;1.00;;;;;;2265025;61;1995;-87
2023/10/06 04:23:07;378925.00;1.26;653.58;82252.00;0.27;142.93;;;;;16.00;1.00;;;;;;2264949;61;1031;-88
2023/10/06 04:25:37;485570.00;1.62;836.98;78851.00;0.26;137.05;;;;;16.10;1.00;;;;;;2264971;61;1087;-88
2023/10/06 04:28:06;430178.00;1.43;741.69;86020.00;0.29;149.43;;;;;16.10;1.00;;;;;;2264931;61;1023;-88
2023/10/06 04:30:34;286749.00;0.96;495.14;87889.00;0.29;152.66;;;;;16.20;1.00;;;;;;2264988;61;1701;-88
2023/10/06 04:33:01;349253.00;1.16;602.58;78191.00;0.26;135.91;;;;;16.10;1.00;;;;;;2265050;61;1262;-86
2023/10/06 04:35:29;272281.00;0.91;470.27;78327.00;0.26;136.15;;;;;15.90;1.00;;;;;;2265020;61;1087;-87
2023/10/06 04:37:59;119339840.00;397.80;68850032.00;83074.00;0.28;144.35;;;;;15.30;1.00;;;;;;2265035;61;1088;-85
2023/10/06 04:40:25;436622.00;1.46;752.77;137871.00;0.46;238.90;;;;;14.90;1.00;;;;;;2264898;61;2238;-87
2023/10/06 04:42:52;298562.00;1.00;515.45;84636.00;0.28;147.04;;;;;14.10;1.00;;;;;;2265001;61;1111;-88
2023/10/06 04:45:19;324146.00;1.08;559.42;73513.00;0.25;127.83;;;;;14.00;1.00;;;;;;2264938;61;935;-87
2023/10/06 04:47:46;331220.00;1.10;571.58;95084.00;0.32;165.09;;;;;13.50;1.00;;;;;;2264944;61;1146;-87
2023/10/06 04:50:13;247039.00;0.82;426.86;84376.00;0.28;146.60;;;;;13.50;1.00;;;;;;2265008;61;1269;-86
2023/10/06 04:52:40;169217.00;0.56;292.92;83220.00;0.28;144.60;;;;;13.60;1.00;;;;;;2264981;61;899;-88
2023/10/06 04:55:13;170651.00;0.57;295.39;83228.00;0.28;144.61;;;;;13.60;1.00;;;;;;2264904;61;1046;-87
2023/10/06 04:57:41;215391.00;0.72;372.41;82980.00;0.28;144.18;;;;;13.60;1.00;;;;;;2264961;61;1158;-87
2023/10/06 05:00:15;273578.00;0.91;472.50;79228.00;0.26;137.70;;;;;14.20;1.00;;;;;;2264880;61;2010;-85
2023/10/06 05:02:44;486266.00;1.62;838.18;77116.00;0.26;134.06;;;;;14.10;1.00;;;;;;2265010;61;979;-88
2023/10/06 05:05:14;386100.00;1.29;665.91;135183.00;0.45;234.27;;;;;14.00;1.00;;;;;;2264943;61;1014;-88
2023/10/06 05:07:41;247314.00;0.82;427.33;83442.00;0.28;144.98;;;;;14.20;1.00;;;;;;2264906;61;909;-87
2023/10/06 05:10:13;285648.00;0.95;493.25;85972.00;0.29;149.35;;;;;14.70;1.00;;;;;;2264748;61;1266;-88
2023/10/06 05:12:42;515699.00;1.72;888.86;90186.00;0.30;156.63;;;;;14.70;1.00;;;;;;2271696;55;3758;-87
2023/10/06 05:15:17;323793.00;1.08;558.82;82707.00;0.28;143.71;;;;;14.90;1.00;;;;;;2273378;61;1307;-88
2023/10/06 05:17:44;502846.00;1.68;866.72;81223.00;0.27;141.15;;;;;14.90;1.00;;;;;;2276918;61;1713;-88
2023/10/06 05:20:19;415016.00;1.38;715.62;67240.00;0.22;116.99;;;;;15.20;1.00;;;;;;2276803;61;1927;-87
2023/10/06 05:22:48;125391176.00;417.97;79874624.00;81576.00;0.27;141.76;;;;;15.40;1.00;;;;;;2276857;61;1711;-87
2023/10/06 05:25:19;416499.00;1.39;718.17;88819.00;0.30;154.27;;;;;15.20;1.00;;;;;;2276987;61;1095;-89
2023/10/06 05:27:48;431292.00;1.44;743.61;83884.00;0.28;145.75;;;;;14.90;1.00;;;;;;2277006;61;1083;-87
2023/10/06 05:30:18;274033.00;0.91;473.28;0.00;0.00;0.62;;;;;14.10;1.00;;;;;;2278640;55;3802;-86
2023/10/06 05:32:45;256729.00;0.86;443.52;0.00;0.00;0.62;;;;;14.10;1.00;;;;;;2276911;61;1102;-88
2023/10/06 05:35:13;398300.00;1.33;686.88;83452.00;0.28;145.00;;;;;13.90;1.00;;;;;;2277010;61;1097;-89
2023/10/06 05:37:42;352741.00;1.18;608.57;97390.00;0.32;169.07;;;;;13.80;1.00;;;;;;2276970;61;1119;-89
2023/10/06 05:40:16;429451.00;1.43;740.44;84794.00;0.28;147.32;;;;;13.50;1.00;;;;;;2276836;61;1347;-89
2023/10/06 05:42:48;434459.00;1.45;749.05;28618.00;0.10;50.19;;;;;13.70;1.00;;;;;;2276941;61;1150;-88
2023/10/06 05:45:18;211625.00;0.71;365.93;0.00;0.00;0.62;;;;;14.10;1.00;;;;;;2276963;61;1090;-88
2023/10/06 05:47:46;290277.00;0.97;501.21;0.00;0.00;0.62;;;;;14.20;1.00;;;;;;2276904;61;1059;-89
2023/10/06 05:50:18;150005.00;0.50;259.82;0.00;0.00;0.62;;;;;14.10;1.00;;;;;;2276861;61;1292;-89
2023/10/06 05:52:51;142818.00;0.48;247.43;0.00;0.00;0.62;;;;;14.10;1.00;;;;;;2276829;61;1038;-87
2023/10/06 05:55:19;106594.00;0.36;184.95;0.00;0.00;0.62;;;;;14.00;1.00;;;;;;2276800;61;1130;-86
2023/10/06 05:57:52;155699.00;0.52;269.63;0.00;0.00;0.62;;;;;14.30;1.00;;;;;;2276625;61;1099;-87
2023/10/06 06:00:25;290867.00;0.97;502.22;0.00;0.00;0.62;;;;;14.50;1.00;;;;;;2276853;61;1467;-87
2023/10/06 06:02:53;6090.00;0.02;11.17;0.00;0.00;0.62;;;;;14.90;1.00;;;;;;2276834;61;926;-88
2023/10/06 06:05:20;99155.00;0.33;172.11;0.00;0.00;0.62;;;;;14.70;1.00;;;;;;2276786;61;1617;-89
2023/10/06 06:07:51;252802.00;0.84;436.77;0.00;0.00;0.62;;;;;14.30;1.00;;;;;;2276757;61;983;-88
2023/10/06 06:10:18;59311.00;0.20;103.29;0.00;0.00;0.62;;;;;13.70;1.00;;;;;;2278375;55;3763;-88
2023/10/06 06:12:47;358382.00;1.19;618.27;0.00;0.00;0.62;;;;;13.80;1.00;;;;;;2283638;56;3764;-86
2023/10/06 06:15:16;135260.00;0.45;234.40;0.00;0.00;0.62;;;;;14.30;1.00;;;;;;2276864;61;1144;-87
2023/10/06 06:17:44;210441.00;0.70;363.89;0.00;0.00;0.62;;;;;14.20;1.00;;;;;;2276707;61;1021;-89
2023/10/06 06:20:14;250710.00;0.84;433.17;0.00;0.00;0.62;;;;;14.80;1.00;;;;;;2276819;61;1359;-87
2023/10/06 06:22:47;128797.00;0.43;223.25;0.00;0.00;0.62;;;;;14.80;1.00;;;;;;2276649;61;2041;-87
2023/10/06 06:25:15;53251.00;0.18;92.81;0.00;0.00;0.62;;;;;15.30;1.00;;;;;;2276783;61;1079;-88
2023/10/06 06:27:43;329566.00;1.10;568.74;0.00;0.00;0.62;;;;;15.40;1.00;;;;;;2276841;61;1176;-87
2023/10/06 06:30:12;200947.00;0.67;347.55;0.00;0.00;0.62;;;;;15.30;1.00;;;;;;2276693;61;1275;-87
2023/10/06 06:32:41;422375.00;1.41;728.27;6713.00;0.02;12.25;;;;;15.40;1.00;;;;;;2276699;61;1579;-87
2023/10/06 06:35:13;570036.00;1.90;982.51;31940.00;0.11;55.94;;;;;15.70;1.00;;;;;;2281534;40;3557;-87
2023/10/06 06:40:24;651177.00;2.17;1122.67;0.00;0.00;0.62;;;;;16.10;1.00;;;;;;2273844;61;1415;-87
2023/10/06 06:42:51;58431.00;0.19;101.76;0.00;0.00;0.62;;;;;16.10;1.00;;;;;;2272393;61;1928;-88
2023/10/06 06:45:20;239908.00;0.80;414.59;0.00;0.00;0.62;;;;;16.10;1.00;;;;;;2272460;61;1156;-87
2023/10/06 06:47:50;165272.00;0.55;286.12;0.00;0.00;0.62;;;;;16.10;1.00;;;;;;2272473;61;1118;-86
2023/10/06 06:50:18;121270.00;0.40;210.27;0.00;0.00;0.62;;;;;16.00;1.00;;;;;;2272386;61;1357;-87
2023/10/06 06:52:53;207597.00;0.69;359.00;47675.00;0.16;83.17;;;;;16.60;1.00;;;;;;2272196;61;1480;-86
2023/10/06 06:55:21;0.00;0.00;0.62;0.00;0.00;0.62;;;;;17.50;1.00;;;;;;2272333;61;1614;-85
2023/10/06 06:57:49;250417.00;0.83;432.67;24012.00;0.08;42.22;;;;;18.20;1.00;;;;;;2272452;61;1047;-86
2023/10/06 07:00:21;63190.00;0.21;109.99;0.00;0.00;0.62;;;;;18.60;1.00;;;;;;2272432;61;1281;-86
2023/10/06 07:02:51;0.00;0.00;0.62;0.00;0.00;0.62;;;;;18.70;1.00;;;;;;2272297;61;1935;-89
2023/10/06 07:05:20;314094.00;1.05;542.15;21804.00;0.07;38.39;;;;;17.90;1.00;;;;;;2272370;61;1507;-84
2023/10/06 07:07:50;198706.00;0.66;343.70;0.00;0.00;0.62;;;;;17.30;1.00;;;;;;2272062;61;1121;-86
2023/10/06 07:10:20;19723.00;0.07;34.79;0.00;0.00;0.62;;;;;17.10;1.00;;;;;;2272989;61;1373;-85
2023/10/06 07:12:48;184800.00;0.62;319.76;0.00;0.00;0.62;;;;;16.60;1.00;;;;;;2273163;61;1199;-85
2023/10/06 07:15:23;230112.00;0.77;397.74;38917.00;0.13;68.01;;;;;16.50;1.00;;;;;;2272998;61;1541;-86
2023/10/06 07:17:53;442056.00;1.47;762.12;120841.00;0.40;209.53;;;;;16.70;1.00;;;;;;2273063;61;1044;-85
2023/10/06 07:20:23;0.00;0.00;0.62;0.00;0.00;0.62;;;;;16.50;1.00;;;;;;2272971;61;1268;-86
2023/10/06 07:22:52;177120.00;0.59;306.53;0.00;0.00;0.62;;;;;16.70;1.00;;;;;;2272931;61;2005;-86
2023/10/06 07:25:24;51938.00;0.17;90.54;0.00;0.00;0.62;;;;;16.70;1.00;;;;;;2273063;61;1465;-86
2023/10/06 07:27:55;138641.00;0.46;240.23;0.00;0.00;0.62;;;;;16.90;1.00;;;;;;2273135;61;1119;-87
2023/10/06 07:30:25;250550.00;0.84;432.90;0.00;0.00;0.62;;;;;17.00;1.00;;;;;;2273142;61;1617;-86
2023/10/06 07:33:00;59434.00;0.20;103.50;0.00;0.00;0.62;;;;;17.20;1.00;;;;;;2273122;61;891;-88
2023/10/06 07:35:37;494542.00;1.65;852.43;58308.00;0.19;101.55;;;;;17.70;1.00;;;;;;2273171;61;1005;-88
2023/10/06 07:38:06;281640.00;0.94;486.36;25082.00;0.08;44.07;;;;;17.90;1.00;;;;;;2272724;61;1496;-88
2023/10/06 07:40:39;264557.00;0.88;456.98;0.00;0.00;0.62;;;;;17.80;1.00;;;;;;2272894;61;1550;-87
2023/10/06 07:43:07;169608.00;0.57;293.59;0.00;0.00;0.62;;;;;18.10;1.00;;;;;;2272891;61;1944;-86
2023/10/06 07:45:36;429038.00;1.43;739.73;23097.00;0.08;40.63;;;;;18.10;1.00;;;;;;2272957;61;1629;-86
2023/10/06 07:48:09;264376.00;0.88;456.67;0.00;0.00;0.62;;;;;18.40;1.00;;;;;;2272642;61;1086;-88
2023/10/06 07:50:37;218782.00;0.73;378.25;0.00;0.00;0.62;;;;;18.80;1.00;;;;;;2272854;61;1577;-87
2023/10/06 07:53:04;116890.00;0.39;202.72;0.00;0.00;0.62;;;;;18.80;1.00;;;;;;2272949;61;1005;-86
2023/10/06 07:55:33;116258.00;0.39;201.63;0.00;0.00;0.62;;;;;19.10;1.00;;;;;;2273051;61;967;-88
2023/10/06 07:58:05;199958.00;0.67;345.85;0.00;0.00;0.62;;;;;19.10;1.00;;;;;;2273005;61;1229;-87
2023/10/06 08:00:41;299466.00;1.00;517.00;63252.00;0.21;110.10;;;;;19.30;1.00;;;;;;2272648;61;1660;-85
2023/10/06 08:03:19;62577.00;0.21;108.93;0.00;0.00;0.62;;;;;19.40;1.00;;;;;;2272788;61;2014;-85
2023/10/06 08:05:46;268723.00;0.90;464.15;0.00;0.00;0.62;;;;;19.30;1.00;;;;;;2272725;61;1712;-87
2023/10/06 08:08:13;145054.00;0.48;251.28;0.00;0.00;0.62;;;;;19.20;1.00;;;;;;2272890;61;1019;-85
2023/10/06 08:10:42;178068.00;0.59;308.16;0.00;0.00;0.62;;;;;19.20;1.00;;;;;;2272756;61;1445;-86
2023/10/06 08:13:10;276451.00;0.92;477.44;0.00;0.00;0.62;;;;;19.20;1.00;;;;;;2269941;61;1594;-85
2023/10/06 08:15:40;125173.00;0.42;217.00;0.00;0.00;0.62;;;;;19.40;1.00;;;;;;2268782;61;989;-85
2023/10/06 08:18:08;519777.00;1.73;895.88;37587.00;0.13;65.71;;;;;19.00;1.00;;;;;;2268765;61;1303;-86
2023/10/06 08:20:38;96047.00;0.32;166.75;0.00;0.00;0.62;;;;;18.70;1.00;;;;;;2268621;61;1381;-86
2023/10/06 08:23:06;0.00;0.00;0.62;0.00;0.00;0.62;;;;;18.10;1.00;;;;;;2268939;61;2015;-87
2023/10/06 08:25:35;76263.00;0.25;132.58;0.00;0.00;0.62;;;;;18.10;1.00;;;;;;2269059;61;1081;-86
2023/10/06 08:28:04;0.00;0.00;0.62;0.00;0.00;0.62;;;;;18.60;1.00;;;;;;2269016;61;1057;-87
2023/10/06 08:30:33;0.00;0.00;0.62;0.00;0.00;0.62;;;;;18.90;1.00;;;;;;2268900;61;1252;-86
2023/10/06 08:33:04;145867.00;0.49;252.68;0.00;0.00;0.62;;;;;18.60;1.00;;;;;;2268890;61;1620;-87
2023/10/06 08:35:31;167210.00;0.56;289.46;0.00;0.00;0.62;;;;;18.80;1.00;;;;;;2268876;61;1711;-86
2023/10/06 08:38:00;108355.00;0.36;187.99;0.00;0.00;0.62;;;;;18.20;1.00;;;;;;2268912;61;1058;-88
2023/10/06 08:40:30;96609.00;0.32;167.72;0.00;0.00;0.62;;;;;18.60;1.00;;;;;;2268944;61;1482;-89
2023/10/06 08:42:58;137554.00;0.46;238.35;43904.00;0.15;76.64;;;;;18.60;1.00;;;;;;2268881;61;2002;-86
2023/10/06 08:45:26;189897.00;0.63;328.53;47447.00;0.16;82.77;;;;;18.70;1.00;;;;;;2268905;61;1120;-88
2023/10/06 08:47:58;56867.00;0.19;99.06;0.00;0.00;0.62;;;;;18.50;1.00;;;;;;2268953;61;1091;-87
2023/10/06 08:50:27;46994.00;0.16;81.99;0.00;0.00;0.62;;;;;19.00;1.00;;;;;;2268903;61;1406;-87
2023/10/06 08:52:56;82374.00;0.27;143.14;0.00;0.00;0.62;;;;;19.40;1.00;;;;;;2268864;61;1031;-87
2023/10/06 08:55:25;86484.00;0.29;150.24;0.00;0.00;0.62;;;;;19.40;1.00;;;;;;2268942;61;1106;-87
2023/10/06 08:57:53;287679.00;0.96;496.74;50135.00;0.17;87.42;;;;;19.00;1.00;;;;;;2268850;61;903;-86
2023/10/06 09:00:23;105148.00;0.35;182.46;0.00;0.00;0.62;;;;;18.90;1.00;;;;;;2268779;61;1377;-86
2023/10/06 09:02:52;21831.00;0.07;38.44;0.00;0.00;0.62;;;;;19.40;1.00;;;;;;2268739;61;2002;-84
2023/10/06 09:05:19;184247.00;0.61;318.80;0.00;0.00;0.62;;;;;18.80;1.00;;;;;;2268765;61;1059;-86
2023/10/06 09:07:59;131079.00;0.44;227.19;35951.00;0.12;62.88;;;;;18.60;1.00;;;;;;2268814;61;1020;-87
2023/10/06 09:10:30;143139.00;0.48;247.98;0.00;0.00;0.62;;;;;19.00;1.00;;;;;;2268763;61;1302;-86
2023/10/06 09:13:00;187802.00;0.63;324.92;41404.00;0.14;72.32;;;;;19.20;1.00;;;;;;2268727;61;1121;-88
2023/10/06 09:15:28;9401.00;0.03;16.91;0.00;0.00;0.62;;;;;19.30;1.00;;;;;;2268778;61;1527;-86
2023/10/06 09:17:56;279454.00;0.93;482.60;0.00;0.00;0.62;;;;;19.50;1.00;;;;;;2268861;61;995;-87
2023/10/06 09:20:31;224839.00;0.75;388.67;48237.00;0.16;84.14;;;;;19.10;1.00;;;;;;2268787;61;1677;-87
2023/10/06 09:22:59;333683.00;1.11;575.82;10359.00;0.03;18.57;;;;;19.20;1.00;;;;;;2268723;61;2010;-86
2023/10/06 09:25:29;270075.00;0.90;466.47;0.00;0.00;0.62;;;;;19.80;1.00;;;;;;2268876;61;1041;-87
2023/10/06 09:28:08;94764.00;0.32;164.53;0.00;0.00;0.62;;;;;19.90;1.00;;;;;;2268823;61;932;-87
2023/10/06 09:30:50;154874.00;0.52;268.21;0.00;0.00;0.62;;;;;20.20;1.00;;;;;;2268737;61;1470;-88
2023/10/06 09:33:18;150412.00;0.50;260.52;0.00;0.00;0.62;;;;;20.50;1.00;;;;;;2268758;61;1644;-87
2023/10/06 09:35:44;0.00;0.00;0.62;0.00;0.00;0.62;;;;;20.30;1.00;;;;;;2268838;61;1107;-87
2023/10/06 09:38:14;184071.00;0.61;318.50;73889.00;0.25;128.48;;;;;20.00;1.00;;;;;;2268727;61;1109;-87
2023/10/06 09:40:44;3741.00;0.01;7.10;0.00;0.00;0.62;;;;;20.20;1.00;;;;;;2268808;61;1639;-87
2023/10/06 09:43:15;69871.00;0.23;121.54;0.00;0.00;0.62;;;;;20.30;1.00;;;;;;2268787;61;1994;-87
2023/10/06 09:45:43;44451.00;0.15;77.59;0.00;0.00;0.62;;;;;20.20;1.00;;;;;;2268878;61;1102;-88
2023/10/06 09:48:15;178152.00;0.59;308.31;0.00;0.00;0.62;;;;;20.40;1.00;;;;;;2268741;61;1091;-88
2023/10/06 09:50:44;238889.00;0.80;412.84;60008.00;0.20;104.49;;;;;20.70;1.00;;;;;;2268781;61;1487;-87
2023/10/06 09:53:13;32344.00;0.11;56.64;0.00;0.00;0.62;;;;;20.50;1.00;;;;;;2268761;61;1591;-89
2023/10/06 09:55:41;241519.00;0.81;417.36;0.00;0.00;0.62;;;;;20.90;1.00;;;;;;2268751;61;1101;-88
2023/10/06 09:58:09;189467.00;0.63;327.79;25390.00;0.08;44.60;;;;;21.20;1.00;;;;;;2268773;61;923;-87
2023/10/06 10:00:40;163871.00;0.55;283.71;0.00;0.00;0.62;;;;;20.80;1.00;;;;;;2268668;61;1372;-87
2023/10/06 10:03:09;81177.00;0.27;141.07;0.00;0.00;0.62;;;;;21.10;1.00;;;;;;2268554;61;1997;-87
2023/10/06 10:05:39;179539.00;0.60;310.70;21321.00;0.07;37.56;;;;;21.20;1.00;;;;;;2268643;61;1055;-87
2023/10/06 10:08:06;52198.00;0.17;90.99;0.00;0.00;0.62;;;;;20.90;1.00;;;;;;2268599;61;1118;-88
2023/10/06 10:10:35;238667.00;0.80;412.46;61042.00;0.20;106.28;;;;;20.90;1.00;;;;;;2268563;61;1296;-86